sensor_id;sensor_type;location;lat;lon;timestamp;pressure;altitude;pressure_sealevel;temperature;humidity
70407;BME280;57821;52.202;0.154;2023-11-21T00:00:08;101409.09;;;11.54;98.06
70407;BME280;57821;52.202;0.154;2023-11-21T00:02:59;101416.91;;;11.54;97.88
70407;BME280;57821;52.202;0.154;2023-11-21T00:05:46;101416.03;;;11.52;97.39
70407;BME280;57821;52.202;0.154;2023-11-21T00:08:35;101424.72;;;11.52;97.51
70407;BME280;57821;52.202;0.154;2023-11-21T00:11:22;101422.09;;;11.52;97.78
70407;BME280;57821;52.202;0.154;2023-11-21T00:14:11;101435.09;;;11.52;97.82
70407;BME280;57821;52.202;0.154;2023-11-21T00:16:59;101437.69;;;11.52;97.25
70407;BME280;57821;52.202;0.154;2023-11-21T00:19:46;101438.56;;;11.51;97.52
70407;BME280;57821;52.202;0.154;2023-11-21T00:22:35;101443.75;;;11.51;97.45
70407;BME280;57821;52.202;0.154;2023-11-21T00:25:23;101454.13;;;11.51;96.95
70407;BME280;57821;52.202;0.154;2023-11-21T00:28:10;101451.53;;;11.51;97.43
70407;BME280;57821;52.202;0.154;2023-11-21T00:30:57;101451.53;;;11.50;96.78
70407;BME280;57821;52.202;0.154;2023-11-21T00:33:44;101453.22;;;11.48;96.47
70407;BME280;57821;52.202;0.154;2023-11-21T00:36:32;101458.44;;;11.48;97.15
70407;BME280;57821;52.202;0.154;2023-11-21T00:39:19;101458.44;;;11.46;96.74
70407;BME280;57821;52.202;0.154;2023-11-21T00:42:06;101459.31;;;11.47;96.96
70407;BME280;57821;52.202;0.154;2023-11-21T00:44:53;101461.91;;;11.45;97.09
70407;BME280;57821;52.202;0.154;2023-11-21T00:47:40;101465.38;;;11.46;96.48
70407;BME280;57821;52.202;0.154;2023-11-21T00:50:27;101474.00;;;11.43;96.58
70407;BME280;57821;52.202;0.154;2023-11-21T00:53:16;101470.53;;;11.43;97.17
70407;BME280;57821;52.202;0.154;2023-11-21T00:56:03;101474.00;;;11.40;97.12
70407;BME280;57821;52.202;0.154;2023-11-21T00:58:50;101476.59;;;11.40;97.27
70407;BME280;57821;52.202;0.154;2023-11-21T01:01:39;101476.59;;;11.40;96.85
70407;BME280;57821;52.202;0.154;2023-11-21T01:04:26;101492.16;;;11.40;97.45
70407;BME280;57821;52.202;0.154;2023-11-21T01:07:13;101491.31;;;11.40;97.29
70407;BME280;57821;52.202;0.154;2023-11-21T01:10:00;101489.53;;;11.37;97.72
70407;BME280;57821;52.202;0.154;2023-11-21T01:12:47;101497.38;;;11.40;96.82
70407;BME280;57821;52.202;0.154;2023-11-21T01:15:35;101496.47;;;11.38;97.05
70407;BME280;57821;52.202;0.154;2023-11-21T01:18:22;101493.91;;;11.41;97.08
70407;BME280;57821;52.202;0.154;2023-11-21T01:21:12;101493.91;;;11.41;96.95
70407;BME280;57821;52.202;0.154;2023-11-21T01:23:59;101504.31;;;11.41;97.24
70407;BME280;57821;52.202;0.154;2023-11-21T01:26:46;101507.75;;;11.40;97.90
70407;BME280;57821;52.202;0.154;2023-11-21T01:29:33;101501.69;;;11.38;97.73
70407;BME280;57821;52.202;0.154;2023-11-21T01:32:21;101504.28;;;11.38;97.15
70407;BME280;57821;52.202;0.154;2023-11-21T01:35:08;101504.28;;;11.35;97.34
70407;BME280;57821;52.202;0.154;2023-11-21T01:37:57;101512.06;;;11.38;96.98
70407;BME280;57821;52.202;0.154;2023-11-21T01:40:44;101523.31;;;11.37;97.76
70407;BME280;57821;52.202;0.154;2023-11-21T01:43:31;101525.91;;;11.39;97.83
70407;BME280;57821;52.202;0.154;2023-11-21T01:46:20;101537.16;;;11.39;97.90
70407;BME280;57821;52.202;0.154;2023-11-21T01:49:07;101537.16;;;11.39;97.05
70407;BME280;57821;52.202;0.154;2023-11-21T01:51:56;101536.31;;;11.39;96.95
70407;BME280;57821;52.202;0.154;2023-11-21T01:54:43;101535.44;;;11.38;97.59
70407;BME280;57821;52.202;0.154;2023-11-21T01:57:31;101545.84;;;11.41;96.99
70407;BME280;57821;52.202;0.154;2023-11-21T02:00:18;101546.69;;;11.40;96.87
70407;BME280;57821;52.202;0.154;2023-11-21T02:03:06;101550.13;;;11.38;97.37
70407;BME280;57821;52.202;0.154;2023-11-21T02:05:54;101558.81;;;11.40;96.56
70407;BME280;57821;52.202;0.154;2023-11-21T02:08:41;101566.63;;;11.41;97.14
70407;BME280;57821;52.202;0.154;2023-11-21T02:11:31;101570.94;;;11.41;96.57
70407;BME280;57821;52.202;0.154;2023-11-21T02:14:21;101566.59;;;11.40;96.37
70407;BME280;57821;52.202;0.154;2023-11-21T02:17:09;101570.91;;;11.38;96.81
70407;BME280;57821;52.202;0.154;2023-11-21T02:19:56;101562.25;;;11.37;96.64
70407;BME280;57821;52.202;0.154;2023-11-21T02:22:50;101565.69;;;11.33;96.31
70407;BME280;57821;52.202;0.154;2023-11-21T02:25:56;101568.28;;;11.33;96.33
70407;BME280;57821;52.202;0.154;2023-11-21T02:28:43;101594.25;;;11.33;96.17
70407;BME280;57821;52.202;0.154;2023-11-21T02:31:30;101595.09;;;11.32;95.55
70407;BME280;57821;52.202;0.154;2023-11-21T02:34:21;101594.22;;;11.30;95.93
70407;BME280;57821;52.202;0.154;2023-11-21T02:37:08;101608.97;;;11.30;95.67
70407;BME280;57821;52.202;0.154;2023-11-21T02:39:55;101605.50;;;11.29;95.74
70407;BME280;57821;52.202;0.154;2023-11-21T02:42:49;101602.84;;;11.26;95.59
70407;BME280;57821;52.202;0.154;2023-11-21T02:45:38;101611.53;;;11.28;95.53
70407;BME280;57821;52.202;0.154;2023-11-21T02:48:26;101614.09;;;11.25;95.09
70407;BME280;57821;52.202;0.154;2023-11-21T02:51:13;101617.53;;;11.24;95.11
70407;BME280;57821;52.202;0.154;2023-11-21T02:54:00;101615.81;;;11.23;95.37
70407;BME280;57821;52.202;0.154;2023-11-21T02:56:49;101625.31;;;11.21;95.13
70407;BME280;57821;52.202;0.154;2023-11-21T02:59:36;101633.09;;;11.21;95.28
70407;BME280;57821;52.202;0.154;2023-11-21T03:02:23;101633.94;;;11.17;95.61
70407;BME280;57821;52.202;0.154;2023-11-21T03:05:10;101628.72;;;11.14;95.22
70407;BME280;57821;52.202;0.154;2023-11-21T03:07:57;101642.53;;;11.10;95.35
70407;BME280;57821;52.202;0.154;2023-11-21T03:10:45;101646.84;;;11.09;94.90
70407;BME280;57821;52.202;0.154;2023-11-21T03:13:32;101649.44;;;11.06;94.98
70407;BME280;57821;52.202;0.154;2023-11-21T03:16:19;101658.06;;;11.04;95.87
70407;BME280;57821;52.202;0.154;2023-11-21T03:19:06;101652.81;;;11.01;94.95
70407;BME280;57821;52.202;0.154;2023-11-21T03:21:55;101651.13;;;11.00;95.19
70407;BME280;57821;52.202;0.154;2023-11-21T03:24:43;101654.56;;;10.99;95.12
70407;BME280;57821;52.202;0.154;2023-11-21T03:27:30;101655.41;;;10.95;95.48
70407;BME280;57821;52.202;0.154;2023-11-21T03:30:17;101660.59;;;10.95;95.00
70407;BME280;57821;52.202;0.154;2023-11-21T03:33:04;101664.03;;;10.94;95.16
70407;BME280;57821;52.202;0.154;2023-11-21T03:35:51;101669.22;;;10.94;94.83
70407;BME280;57821;52.202;0.154;2023-11-21T03:38:39;101666.63;;;10.94;94.81
70407;BME280;57821;52.202;0.154;2023-11-21T03:41:26;101682.19;;;10.94;94.74
70407;BME280;57821;52.202;0.154;2023-11-21T03:44:14;101688.22;;;10.93;94.81
70407;BME280;57821;52.202;0.154;2023-11-21T03:47:01;101685.59;;;10.90;94.95
70407;BME280;57821;52.202;0.154;2023-11-21T03:49:48;101692.53;;;10.91;94.76
70407;BME280;57821;52.202;0.154;2023-11-21T03:52:35;101692.53;;;10.91;94.97
70407;BME280;57821;52.202;0.154;2023-11-21T03:55:22;101695.09;;;10.89;94.56
70407;BME280;57821;52.202;0.154;2023-11-21T03:58:12;101694.25;;;10.89;94.75
70407;BME280;57821;52.202;0.154;2023-11-21T04:01:00;101703.75;;;10.88;94.71
70407;BME280;57821;52.202;0.154;2023-11-21T04:03:49;101701.16;;;10.87;94.43
70407;BME280;57821;52.202;0.154;2023-11-21T04:06:36;101708.03;;;10.85;94.16
70407;BME280;57821;52.202;0.154;2023-11-21T04:09:24;101714.94;;;10.83;94.70
70407;BME280;57821;52.202;0.154;2023-11-21T04:12:12;101714.91;;;10.80;94.05
70407;BME280;57821;52.202;0.154;2023-11-21T04:14:59;101737.34;;;10.78;93.96
70407;BME280;57821;52.202;0.154;2023-11-21T04:17:46;101728.69;;;10.76;93.87
70407;BME280;57821;52.202;0.154;2023-11-21T04:20:33;101739.94;;;10.76;93.93
70407;BME280;57821;52.202;0.154;2023-11-21T04:23:20;101746.84;;;10.76;93.86
70407;BME280;57821;52.202;0.154;2023-11-21T04:26:07;101739.94;;;10.75;93.47
70407;BME280;57821;52.202;0.154;2023-11-21T04:28:54;101739.91;;;10.73;92.99
70407;BME280;57821;52.202;0.154;2023-11-21T04:31:41;101744.22;;;10.71;93.21
70407;BME280;57821;52.202;0.154;2023-11-21T04:34:28;101756.31;;;10.70;92.74
70407;BME280;57821;52.202;0.154;2023-11-21T04:37:17;101767.53;;;10.69;92.97
70407;BME280;57821;52.202;0.154;2023-11-21T04:40:05;101763.16;;;10.67;92.25
70407;BME280;57821;52.202;0.154;2023-11-21T04:42:55;101764.03;;;10.66;92.59
70407;BME280;57821;52.202;0.154;2023-11-21T04:45:44;101775.25;;;10.63;91.89
70407;BME280;57821;52.202;0.154;2023-11-21T04:48:31;101772.63;;;10.62;92.48
70407;BME280;57821;52.202;0.154;2023-11-21T04:51:18;101765.69;;;10.59;92.12
70407;BME280;57821;52.202;0.154;2023-11-21T04:54:05;101765.66;;;10.58;92.32
70407;BME280;57821;52.202;0.154;2023-11-21T04:56:52;101767.38;;;10.56;91.60
70407;BME280;57821;52.202;0.154;2023-11-21T04:59:39;101771.69;;;10.55;92.17
70407;BME280;57821;52.202;0.154;2023-11-21T05:02:26;101769.94;;;10.54;91.73
70407;BME280;57821;52.202;0.154;2023-11-21T05:05:21;101775.97;;;10.52;91.64
70407;BME280;57821;52.202;0.154;2023-11-21T05:08:09;101782.03;;;10.52;91.31
70407;BME280;57821;52.202;0.154;2023-11-21T05:10:56;101795.84;;;10.51;91.04
70407;BME280;57821;52.202;0.154;2023-11-21T05:13:43;101790.56;;;10.45;90.97
70407;BME280;57821;52.202;0.154;2023-11-21T05:16:30;101794.91;;;10.46;91.01
70407;BME280;57821;52.202;0.154;2023-11-21T05:19:17;101800.97;;;10.47;91.01
70407;BME280;57821;52.202;0.154;2023-11-21T05:22:04;101798.34;;;10.45;91.45
70407;BME280;57821;52.202;0.154;2023-11-21T05:24:52;101795.75;;;10.45;91.04
70407;BME280;57821;52.202;0.154;2023-11-21T05:27:39;101792.25;;;10.42;91.06
70407;BME280;57821;52.202;0.154;2023-11-21T05:30:26;101789.66;;;10.42;90.71
70407;BME280;57821;52.202;0.154;2023-11-21T05:33:13;101808.66;;;10.41;90.91
70407;BME280;57821;52.202;0.154;2023-11-21T05:36:00;101810.31;;;10.36;90.38
70407;BME280;57821;52.202;0.154;2023-11-21T05:38:47;101820.69;;;10.36;90.50
70407;BME280;57821;52.202;0.154;2023-11-21T05:41:34;101823.25;;;10.34;90.51
70407;BME280;57821;52.202;0.154;2023-11-21T05:44:21;101837.06;;;10.33;90.58
70407;BME280;57821;52.202;0.154;2023-11-21T05:47:08;101849.16;;;10.33;91.07
70407;BME280;57821;52.202;0.154;2023-11-21T05:49:55;101850.00;;;10.30;90.49
70407;BME280;57821;52.202;0.154;2023-11-21T05:52:46;101862.09;;;10.29;90.18
70407;BME280;57821;52.202;0.154;2023-11-21T05:55:33;101861.22;;;10.29;90.73
70407;BME280;57821;52.202;0.154;2023-11-21T05:58:20;101874.16;;;10.29;90.78
70407;BME280;57821;52.202;0.154;2023-11-21T06:01:07;101881.06;;;10.28;90.24
70407;BME280;57821;52.202;0.154;2023-11-21T06:03:55;101887.97;;;10.28;90.65
70407;BME280;57821;52.202;0.154;2023-11-21T06:06:42;101892.28;;;10.27;90.66
70407;BME280;57821;52.202;0.154;2023-11-21T06:09:29;101883.59;;;10.25;90.43
70407;BME280;57821;52.202;0.154;2023-11-21T06:12:16;101882.72;;;10.25;90.34
70407;BME280;57821;52.202;0.154;2023-11-21T06:15:04;101887.91;;;10.23;90.14
70407;BME280;57821;52.202;0.154;2023-11-21T06:17:52;101902.59;;;10.23;90.36
70407;BME280;57821;52.202;0.154;2023-11-21T06:20:40;101905.19;;;10.23;90.27
70407;BME280;57821;52.202;0.154;2023-11-21T06:23:27;101900.84;;;10.22;90.57
70407;BME280;57821;52.202;0.154;2023-11-21T06:26:14;101901.72;;;10.22;90.34
70407;BME280;57821;52.202;0.154;2023-11-21T06:29:01;101901.69;;;10.21;90.85
70407;BME280;57821;52.202;0.154;2023-11-21T06:31:49;101905.88;;;10.16;91.04
70407;BME280;57821;52.202;0.154;2023-11-21T06:34:36;101912.00;;;10.18;91.32
70407;BME280;57821;52.202;0.154;2023-11-21T06:37:23;101913.63;;;10.14;91.02
70407;BME280;57821;52.202;0.154;2023-11-21T06:40:10;101912.75;;;10.14;91.50
70407;BME280;57821;52.202;0.154;2023-11-21T06:43:00;101919.66;;;10.12;91.59
70407;BME280;57821;52.202;0.154;2023-11-21T06:45:47;101924.81;;;10.10;92.02
70407;BME280;57821;52.202;0.154;2023-11-21T06:48:34;101920.44;;;10.08;92.27
70407;BME280;57821;52.202;0.154;2023-11-21T06:51:22;101925.59;;;10.06;92.56
70407;BME280;57821;52.202;0.154;2023-11-21T06:54:08;101935.91;;;10.03;92.30
70407;BME280;57821;52.202;0.154;2023-11-21T06:56:55;101935.88;;;10.00;92.97
70407;BME280;57821;52.202;0.154;2023-11-21T06:59:43;101939.28;;;9.99;92.67
70407;BME280;57821;52.202;0.154;2023-11-21T07:02:31;101945.28;;;9.97;93.04
70407;BME280;57821;52.202;0.154;2023-11-21T07:05:18;101941.81;;;9.95;92.87
70407;BME280;57821;52.202;0.154;2023-11-21T07:08:08;101947.00;;;9.95;93.31
70407;BME280;57821;52.202;0.154;2023-11-21T07:10:55;101955.56;;;9.92;93.50
70407;BME280;57821;52.202;0.154;2023-11-21T07:13:42;101963.34;;;9.92;93.56
70407;BME280;57821;52.202;0.154;2023-11-21T07:16:29;101969.41;;;9.93;93.53
70407;BME280;57821;52.202;0.154;2023-11-21T07:19:17;101970.19;;;9.90;93.64
70407;BME280;57821;52.202;0.154;2023-11-21T07:22:04;101976.25;;;9.90;93.59
70407;BME280;57821;52.202;0.154;2023-11-21T07:24:52;101977.97;;;9.88;93.70
70407;BME280;57821;52.202;0.154;2023-11-21T07:27:39;101988.38;;;9.92;93.76
70407;BME280;57821;52.202;0.154;2023-11-21T07:30:26;101992.69;;;9.91;93.59
70407;BME280;57821;52.202;0.154;2023-11-21T07:33:13;102006.53;;;9.93;93.65
70407;BME280;57821;52.202;0.154;2023-11-21T07:36:04;102011.72;;;9.93;93.91
70407;BME280;57821;52.202;0.154;2023-11-21T07:38:51;102016.94;;;9.95;93.84
70407;BME280;57821;52.202;0.154;2023-11-21T07:41:38;102016.09;;;9.96;94.16
70407;BME280;57821;52.202;0.154;2023-11-21T07:44:31;102017.91;;;10.00;93.65
70407;BME280;57821;52.202;0.154;2023-11-21T07:47:18;102021.38;;;10.02;94.13
70407;BME280;57821;52.202;0.154;2023-11-21T07:50:06;102025.72;;;10.01;93.72
70407;BME280;57821;52.202;0.154;2023-11-21T07:52:55;102026.56;;;10.02;93.88
70407;BME280;57821;52.202;0.154;2023-11-21T07:55:42;102039.59;;;10.05;93.66
70407;BME280;57821;52.202;0.154;2023-11-21T07:58:31;102039.63;;;10.06;94.07
70407;BME280;57821;52.202;0.154;2023-11-21T08:01:20;102047.41;;;10.08;93.28
70407;BME280;57821;52.202;0.154;2023-11-21T08:04:07;102040.53;;;10.10;93.38
70407;BME280;57821;52.202;0.154;2023-11-21T08:06:55;102054.41;;;10.12;93.68
70407;BME280;57821;52.202;0.154;2023-11-21T08:09:42;102061.34;;;10.13;93.71
70407;BME280;57821;52.202;0.154;2023-11-21T08:12:31;102063.09;;;10.15;93.54
70407;BME280;57821;52.202;0.154;2023-11-21T08:15:18;102072.72;;;10.18;93.78
70407;BME280;57821;52.202;0.154;2023-11-21T08:18:05;102083.97;;;10.20;93.91
70407;BME280;57821;52.202;0.154;2023-11-21T08:20:54;102090.88;;;10.21;94.08
70407;BME280;57821;52.202;0.154;2023-11-21T08:23:42;102090.94;;;10.22;93.89
70407;BME280;57821;52.202;0.154;2023-11-21T08:26:29;102091.81;;;10.23;94.14
70407;BME280;57821;52.202;0.154;2023-11-21T08:29:15;102094.41;;;10.23;93.78
70407;BME280;57821;52.202;0.154;2023-11-21T08:32:03;102103.88;;;10.22;93.88
70407;BME280;57821;52.202;0.154;2023-11-21T08:34:52;102109.13;;;10.25;94.61
70407;BME280;57821;52.202;0.154;2023-11-21T08:37:39;102115.19;;;10.26;94.15
70407;BME280;57821;52.202;0.154;2023-11-21T08:40:26;102125.53;;;10.26;94.61
70407;BME280;57821;52.202;0.154;2023-11-21T08:43:13;102127.25;;;10.25;94.50
70407;BME280;57821;52.202;0.154;2023-11-21T08:46:03;102129.00;;;10.26;94.18
70407;BME280;57821;52.202;0.154;2023-11-21T08:48:50;102127.31;;;10.27;94.78
70407;BME280;57821;52.202;0.154;2023-11-21T08:51:39;102129.88;;;10.27;94.80
70407;BME280;57821;52.202;0.154;2023-11-21T08:54:26;102136.84;;;10.28;94.50
70407;BME280;57821;52.202;0.154;2023-11-21T08:57:13;102136.84;;;10.28;94.51
70407;BME280;57821;52.202;0.154;2023-11-21T09:00:00;102146.41;;;10.31;94.52
70407;BME280;57821;52.202;0.154;2023-11-21T09:02:47;102146.41;;;10.32;94.17
70407;BME280;57821;52.202;0.154;2023-11-21T09:05:37;102149.03;;;10.34;94.55
70407;BME280;57821;52.202;0.154;2023-11-21T09:08:25;102156.00;;;10.36;94.90
70407;BME280;57821;52.202;0.154;2023-11-21T09:11:12;102165.50;;;10.37;95.13
70407;BME280;57821;52.202;0.154;2023-11-21T09:13:59;102173.38;;;10.40;95.15
70407;BME280;57821;52.202;0.154;2023-11-21T09:16:47;102167.34;;;10.41;95.09
70407;BME280;57821;52.202;0.154;2023-11-21T09:19:34;102164.75;;;10.41;95.43
70407;BME280;57821;52.202;0.154;2023-11-21T09:22:21;102170.91;;;10.46;95.89
70407;BME280;57821;52.202;0.154;2023-11-21T09:25:08;102172.66;;;10.47;96.43
70407;BME280;57821;52.202;0.154;2023-11-21T09:27:55;102175.28;;;10.50;96.31
70407;BME280;57821;52.202;0.154;2023-11-21T09:30:44;102173.59;;;10.52;96.13
70407;BME280;57821;52.202;0.154;2023-11-21T09:33:31;102176.25;;;10.55;96.57
70407;BME280;57821;52.202;0.154;2023-11-21T09:36:18;102172.84;;;10.58;96.67
70407;BME280;57821;52.202;0.154;2023-11-21T09:39:05;102174.59;;;10.59;96.86
70407;BME280;57821;52.202;0.154;2023-11-21T09:42:03;102172.81;;;10.56;96.63
70407;BME280;57821;52.202;0.154;2023-11-21T09:45:05;102180.66;;;10.61;97.22
70407;BME280;57821;52.202;0.154;2023-11-21T09:47:57;102181.66;;;10.67;96.78
70407;BME280;57821;52.202;0.154;2023-11-21T09:50:47;102186.88;;;10.69;97.17
70407;BME280;57821;52.202;0.154;2023-11-21T09:53:36;102195.59;;;10.73;97.05
70407;BME280;57821;52.202;0.154;2023-11-21T09:56:24;102186.97;;;10.74;96.50
70407;BME280;57821;52.202;0.154;2023-11-21T09:59:15;102188.69;;;10.72;97.24
70407;BME280;57821;52.202;0.154;2023-11-21T10:02:02;102210.44;;;10.80;97.07
70407;BME280;57821;52.202;0.154;2023-11-21T10:04:50;102207.03;;;10.82;96.88
70407;BME280;57821;52.202;0.154;2023-11-21T10:07:39;102209.69;;;10.87;97.08
70407;BME280;57821;52.202;0.154;2023-11-21T10:10:29;102221.88;;;10.91;97.47
70407;BME280;57821;52.202;0.154;2023-11-21T10:13:19;102222.81;;;10.94;97.51
70407;BME280;57821;52.202;0.154;2023-11-21T10:16:07;102221.97;;;10.97;97.43
70407;BME280;57821;52.202;0.154;2023-11-21T10:18:59;102222.94;;;11.00;97.49
70407;BME280;57821;52.202;0.154;2023-11-21T10:21:58;102234.34;;;11.10;97.38
70407;BME280;57821;52.202;0.154;2023-11-21T10:24:48;102232.69;;;11.15;97.65
70407;BME280;57821;52.202;0.154;2023-11-21T10:27:40;102228.44;;;11.20;97.75
70407;BME280;57821;52.202;0.154;2023-11-21T10:30:32;102234.59;;;11.25;97.60
70407;BME280;57821;52.202;0.154;2023-11-21T10:33:27;102220.72;;;11.23;97.23
70407;BME280;57821;52.202;0.154;2023-11-21T10:36:25;102235.63;;;11.36;97.55
70407;BME280;57821;52.202;0.154;2023-11-21T10:39:16;102245.25;;;11.40;97.40
70407;BME280;57821;52.202;0.154;2023-11-21T10:42:04;102249.66;;;11.46;97.38
70407;BME280;57821;52.202;0.154;2023-11-21T10:44:55;102248.81;;;11.48;97.58
70407;BME280;57821;52.202;0.154;2023-11-21T10:47:43;102238.41;;;11.45;96.85
70407;BME280;57821;52.202;0.154;2023-11-21T10:50:33;102234.13;;;11.49;96.87
70407;BME280;57821;52.202;0.154;2023-11-21T10:53:21;102249.88;;;11.58;97.16
70407;BME280;57821;52.202;0.154;2023-11-21T10:56:09;102267.19;;;11.59;97.21
70407;BME280;57821;52.202;0.154;2023-11-21T10:58:58;102264.56;;;11.59;97.08
70407;BME280;57821;52.202;0.154;2023-11-21T11:01:47;102279.31;;;11.60;96.98
70407;BME280;57821;52.202;0.154;2023-11-21T11:04:36;102275.00;;;11.61;97.63
70407;BME280;57821;52.202;0.154;2023-11-21T11:07:26;102278.50;;;11.63;97.57
70407;BME280;57821;52.202;0.154;2023-11-21T11:10:14;102288.06;;;11.65;97.89
70407;BME280;57821;52.202;0.154;2023-11-21T11:13:01;102289.00;;;11.69;97.32
70407;BME280;57821;52.202;0.154;2023-11-21T11:15:49;102289.88;;;11.71;97.10
70407;BME280;57821;52.202;0.154;2023-11-21T11:18:36;102289.88;;;11.71;97.63
70407;BME280;57821;52.202;0.154;2023-11-21T11:21:31;102299.44;;;11.70;96.83
70407;BME280;57821;52.202;0.154;2023-11-21T11:24:58;102295.94;;;11.68;96.71
70407;BME280;57821;52.202;0.154;2023-11-21T11:28:03;102287.16;;;11.62;97.13
70407;BME280;57821;52.202;0.154;2023-11-21T11:31:13;102303.63;;;11.62;97.28
70407;BME280;57821;52.202;0.154;2023-11-21T11:34:15;102298.38;;;11.61;96.67
70407;BME280;57821;52.202;0.154;2023-11-21T11:37:06;102310.63;;;11.68;96.60
70407;BME280;57821;52.202;0.154;2023-11-21T11:39:56;102311.53;;;11.70;96.36
70407;BME280;57821;52.202;0.154;2023-11-21T11:43:04;102322.75;;;11.67;96.11
70407;BME280;57821;52.202;0.154;2023-11-21T11:45:57;102320.13;;;11.66;96.30
70407;BME280;57821;52.202;0.154;2023-11-21T11:49:02;102327.84;;;11.61;96.22
70407;BME280;57821;52.202;0.154;2023-11-21T11:55:17;102331.25;;;11.57;95.56
70407;BME280;57821;52.202;0.154;2023-11-21T11:58:07;102342.41;;;11.51;95.59
70407;BME280;57821;52.202;0.154;2023-11-21T12:00:55;102337.97;;;11.46;95.45
70407;BME280;57821;52.202;0.154;2023-11-21T12:03:42;102358.69;;;11.43;95.16
70407;BME280;57821;52.202;0.154;2023-11-21T12:06:33;102357.56;;;11.30;95.09
70407;BME280;57821;52.202;0.154;2023-11-21T12:09:22;102369.72;;;11.31;95.40
70407;BME280;57821;52.202;0.154;2023-11-21T12:12:10;102378.34;;;11.29;95.11
70407;BME280;57821;52.202;0.154;2023-11-21T12:14:57;102385.19;;;11.25;95.06
70407;BME280;57821;52.202;0.154;2023-11-21T12:17:46;102392.94;;;11.22;95.32
70407;BME280;57821;52.202;0.154;2023-11-21T12:20:33;102386.75;;;11.16;94.76
70407;BME280;57821;52.202;0.154;2023-11-21T12:23:26;102403.16;;;11.15;94.53
70407;BME280;57821;52.202;0.154;2023-11-21T12:26:13;102404.84;;;11.12;94.32
70407;BME280;57821;52.202;0.154;2023-11-21T12:29:00;102413.50;;;11.11;95.18
70407;BME280;57821;52.202;0.154;2023-11-21T12:31:49;102415.16;;;11.09;94.90
70407;BME280;57821;52.202;0.154;2023-11-21T12:34:37;102407.34;;;11.08;94.95
70407;BME280;57821;52.202;0.154;2023-11-21T12:37:25;102405.53;;;11.04;94.63
70407;BME280;57821;52.202;0.154;2023-11-21T12:40:14;102408.06;;;11.01;94.64
70407;BME280;57821;52.202;0.154;2023-11-21T12:43:02;102412.28;;;10.96;94.65
70407;BME280;57821;52.202;0.154;2023-11-21T12:46:04;102420.00;;;10.93;95.28
70407;BME280;57821;52.202;0.154;2023-11-21T12:48:54;102411.28;;;10.89;94.73
70407;BME280;57821;52.202;0.154;2023-11-21T12:51:41;102432.09;;;10.92;94.76
70407;BME280;57821;52.202;0.154;2023-11-21T12:54:28;102433.00;;;10.93;94.84
70407;BME280;57821;52.202;0.154;2023-11-21T12:57:16;102437.38;;;10.97;94.95
70407;BME280;57821;52.202;0.154;2023-11-21T13:00:04;102442.63;;;10.98;93.84
70407;BME280;57821;52.202;0.154;2023-11-21T13:02:59;102446.09;;;10.99;94.54
70407;BME280;57821;52.202;0.154;2023-11-21T13:05:48;102448.69;;;10.99;93.76
70407;BME280;57821;52.202;0.154;2023-11-21T13:08:40;102455.66;;;11.00;93.29
70407;BME280;57821;52.202;0.154;2023-11-21T13:11:27;102454.81;;;11.02;93.68
70407;BME280;57821;52.202;0.154;2023-11-21T13:14:18;102463.53;;;11.04;92.84
70407;BME280;57821;52.202;0.154;2023-11-21T13:17:05;102456.63;;;11.05;92.50
70407;BME280;57821;52.202;0.154;2023-11-21T13:19:52;102461.84;;;11.06;92.64
70407;BME280;57821;52.202;0.154;2023-11-21T13:22:51;102463.56;;;11.06;92.35
70407;BME280;57821;52.202;0.154;2023-11-21T13:25:44;102474.03;;;11.10;92.24
70407;BME280;57821;52.202;0.154;2023-11-21T13:28:43;102472.41;;;11.16;91.16
70407;BME280;57821;52.202;0.154;2023-11-21T13:31:34;102476.81;;;11.20;91.48
70407;BME280;57821;52.202;0.154;2023-11-21T13:34:23;102479.50;;;11.24;91.10
70407;BME280;57821;52.202;0.154;2023-11-21T13:37:19;102479.63;;;11.30;91.02
70407;BME280;57821;52.202;0.154;2023-11-21T13:40:06;102484.94;;;11.36;91.36
70407;BME280;57821;52.202;0.154;2023-11-21T13:43:01;102492.88;;;11.42;90.67
70407;BME280;57821;52.202;0.154;2023-11-21T13:45:52;102500.72;;;11.45;90.22
70407;BME280;57821;52.202;0.154;2023-11-21T13:48:48;102492.03;;;11.43;90.01
70407;BME280;57821;52.202;0.154;2023-11-21T13:51:42;102493.88;;;11.49;89.90
70407;BME280;57821;52.202;0.154;2023-11-21T13:54:35;102505.22;;;11.52;89.05
70407;BME280;57821;52.202;0.154;2023-11-21T13:57:22;102501.81;;;11.57;89.08
70407;BME280;57821;52.202;0.154;2023-11-21T14:00:09;102506.19;;;11.58;88.93
70407;BME280;57821;52.202;0.154;2023-11-21T14:03:13;102518.25;;;11.56;87.88
70407;BME280;57821;52.202;0.154;2023-11-21T14:06:09;102519.97;;;11.55;88.23
70407;BME280;57821;52.202;0.154;2023-11-21T14:09:01;102523.41;;;11.52;88.00
70407;BME280;57821;52.202;0.154;2023-11-21T14:11:55;102528.47;;;11.48;86.47
70407;BME280;57821;52.202;0.154;2023-11-21T14:14:43;102531.00;;;11.43;86.96
70407;BME280;57821;52.202;0.154;2023-11-21T14:17:32;102534.38;;;11.39;87.00
70407;BME280;57821;52.202;0.154;2023-11-21T14:20:19;102537.78;;;11.37;85.98
70407;BME280;57821;52.202;0.154;2023-11-21T14:23:07;102531.69;;;11.35;86.48
70407;BME280;57821;52.202;0.154;2023-11-21T14:25:54;102548.94;;;11.33;86.37
70407;BME280;57821;52.202;0.154;2023-11-21T14:28:42;102535.78;;;11.25;86.49
70407;BME280;57821;52.202;0.154;2023-11-21T14:31:29;102545.38;;;11.28;85.92
70407;BME280;57821;52.202;0.154;2023-11-21T14:34:18;102552.25;;;11.26;85.66
70407;BME280;57821;52.202;0.154;2023-11-21T14:37:08;102549.59;;;11.24;86.08
70407;BME280;57821;52.202;0.154;2023-11-21T14:39:55;102559.16;;;11.25;85.59
70407;BME280;57821;52.202;0.154;2023-11-21T14:42:44;102556.41;;;11.19;85.52
70407;BME280;57821;52.202;0.154;2023-11-21T14:45:34;102573.75;;;11.20;85.96